sensor_id;sensor_type;location;lat;lon;timestamp;temperature;humidity
18083;DHT22;9168;51.194;6.840;2024-01-25T00:02:25;8.80;99.90
18083;DHT22;9168;51.194;6.840;2024-01-25T00:04:53;8.80;99.90
18083;DHT22;9168;51.194;6.840;2024-01-25T00:07:20;8.80;99.90
18083;DHT22;9168;51.194;6.840;2024-01-25T00:09:47;8.80;99.90
18083;DHT22;9168;51.194;6.840;2024-01-25T00:12:14;8.80;99.90
18083;DHT22;9168;51.194;6.840;2024-01-25T00:14:40;8.70;99.90
18083;DHT22;9168;51.194;6.840;2024-01-25T00:17:07;8.70;99.90
18083;DHT22;9168;51.194;6.840;2024-01-25T00:19:34;8.70;99.90
18083;DHT22;9168;51.194;6.840;2024-01-25T00:22:03;8.80;99.90
18083;DHT22;9168;51.194;6.840;2024-01-25T00:24:30;8.70;99.90
18083;DHT22;9168;51.194;6.840;2024-01-25T00:26:57;8.80;99.90
18083;DHT22;9168;51.194;6.840;2024-01-25T00:29:23;8.80;99.90
18083;DHT22;9168;51.194;6.840;2024-01-25T00:31:50;8.80;99.90
18083;DHT22;9168;51.194;6.840;2024-01-25T00:34:18;8.80;99.90
18083;DHT22;9168;51.194;6.840;2024-01-25T00:36:45;8.70;99.90
18083;DHT22;9168;51.194;6.840;2024-01-25T00:39:14;8.70;99.90
18083;DHT22;9168;51.194;6.840;2024-01-25T00:41:42;8.70;99.90
18083;DHT22;9168;51.194;6.840;2024-01-25T00:44:13;8.70;99.90
18083;DHT22;9168;51.194;6.840;2024-01-25T00:46:40;8.70;99.90
18083;DHT22;9168;51.194;6.840;2024-01-25T00:49:08;8.70;99.90
18083;DHT22;9168;51.194;6.840;2024-01-25T00:51:36;8.70;99.90
18083;DHT22;9168;51.194;6.840;2024-01-25T00:54:03;8.60;99.90
18083;DHT22;9168;51.194;6.840;2024-01-25T00:56:32;8.60;99.90
18083;DHT22;9168;51.194;6.840;2024-01-25T00:58:59;8.60;99.90
18083;DHT22;9168;51.194;6.840;2024-01-25T01:01:27;8.50;99.90
18083;DHT22;9168;51.194;6.840;2024-01-25T01:03:55;8.50;99.90
18083;DHT22;9168;51.194;6.840;2024-01-25T01:06:25;8.40;99.90
18083;DHT22;9168;51.194;6.840;2024-01-25T01:08:52;8.40;99.90
18083;DHT22;9168;51.194;6.840;2024-01-25T01:11:19;8.40;99.90
18083;DHT22;9168;51.194;6.840;2024-01-25T01:13:48;8.40;99.90
18083;DHT22;9168;51.194;6.840;2024-01-25T01:16:15;8.30;99.90
18083;DHT22;9168;51.194;6.840;2024-01-25T01:18:41;8.30;99.90
18083;DHT22;9168;51.194;6.840;2024-01-25T01:21:08;8.30;99.90
18083;DHT22;9168;51.194;6.840;2024-01-25T01:23:35;8.20;99.90
18083;DHT22;9168;51.194;6.840;2024-01-25T01:26:03;8.20;99.90
18083;DHT22;9168;51.194;6.840;2024-01-25T01:28:30;8.20;99.90
18083;DHT22;9168;51.194;6.840;2024-01-25T01:30:58;8.20;99.90
18083;DHT22;9168;51.194;6.840;2024-01-25T01:33:25;8.20;99.90
18083;DHT22;9168;51.194;6.840;2024-01-25T01:35:52;8.10;99.90
18083;DHT22;9168;51.194;6.840;2024-01-25T01:38:19;8.10;99.90
18083;DHT22;9168;51.194;6.840;2024-01-25T01:40:46;8.10;99.90
18083;DHT22;9168;51.194;6.840;2024-01-25T01:43:18;8.10;99.90
18083;DHT22;9168;51.194;6.840;2024-01-25T01:45:45;8.10;99.90
18083;DHT22;9168;51.194;6.840;2024-01-25T01:48:13;8.00;99.90
18083;DHT22;9168;51.194;6.840;2024-01-25T01:50:40;8.00;99.90
18083;DHT22;9168;51.194;6.840;2024-01-25T01:53:07;8.00;99.90
18083;DHT22;9168;51.194;6.840;2024-01-25T01:55:34;7.90;99.90
18083;DHT22;9168;51.194;6.840;2024-01-25T01:58:02;7.90;99.90
18083;DHT22;9168;51.194;6.840;2024-01-25T02:00:30;7.90;99.90
18083;DHT22;9168;51.194;6.840;2024-01-25T02:02:57;7.90;99.90
18083;DHT22;9168;51.194;6.840;2024-01-25T02:05:25;7.90;99.90
18083;DHT22;9168;51.194;6.840;2024-01-25T02:07:52;7.80;99.90
18083;DHT22;9168;51.194;6.840;2024-01-25T02:10:20;7.80;99.90
18083;DHT22;9168;51.194;6.840;2024-01-25T02:12:47;7.80;99.90
18083;DHT22;9168;51.194;6.840;2024-01-25T02:15:13;7.70;99.90
18083;DHT22;9168;51.194;6.840;2024-01-25T02:17:40;7.80;99.90
18083;DHT22;9168;51.194;6.840;2024-01-25T02:20:08;7.70;99.90
18083;DHT22;9168;51.194;6.840;2024-01-25T02:22:37;7.70;99.90
18083;DHT22;9168;51.194;6.840;2024-01-25T02:25:04;7.70;99.90
18083;DHT22;9168;51.194;6.840;2024-01-25T02:27:31;7.70;99.90
18083;DHT22;9168;51.194;6.840;2024-01-25T02:30:04;7.70;99.90
18083;DHT22;9168;51.194;6.840;2024-01-25T02:32:32;7.80;99.90
18083;DHT22;9168;51.194;6.840;2024-01-25T02:34:59;7.80;99.90
18083;DHT22;9168;51.194;6.840;2024-01-25T02:37:26;7.80;99.90
18083;DHT22;9168;51.194;6.840;2024-01-25T02:39:54;7.80;99.90
18083;DHT22;9168;51.194;6.840;2024-01-25T02:42:21;7.80;99.90
18083;DHT22;9168;51.194;6.840;2024-01-25T02:44:47;7.90;99.90
18083;DHT22;9168;51.194;6.840;2024-01-25T02:47:14;7.90;99.90
18083;DHT22;9168;51.194;6.840;2024-01-25T02:49:41;7.90;99.90
18083;DHT22;9168;51.194;6.840;2024-01-25T02:52:08;7.90;99.90
18083;DHT22;9168;51.194;6.840;2024-01-25T02:54:35;7.90;99.90
18083;DHT22;9168;51.194;6.840;2024-01-25T02:57:04;8.00;99.90
18083;DHT22;9168;51.194;6.840;2024-01-25T02:59:31;8.00;99.90
18083;DHT22;9168;51.194;6.840;2024-01-25T03:01:58;8.00;99.90
18083;DHT22;9168;51.194;6.840;2024-01-25T03:04:25;8.00;99.90
18083;DHT22;9168;51.194;6.840;2024-01-25T03:06:52;8.00;99.90
18083;DHT22;9168;51.194;6.840;2024-01-25T03:09:19;8.00;99.90
18083;DHT22;9168;51.194;6.840;2024-01-25T03:11:46;8.00;99.90
18083;DHT22;9168;51.194;6.840;2024-01-25T03:14:14;8.00;99.90
18083;DHT22;9168;51.194;6.840;2024-01-25T03:16:40;8.00;99.90
18083;DHT22;9168;51.194;6.840;2024-01-25T03:19:09;7.90;99.90
18083;DHT22;9168;51.194;6.840;2024-01-25T03:21:37;7.90;99.90
18083;DHT22;9168;51.194;6.840;2024-01-25T03:24:04;7.80;99.90
18083;DHT22;9168;51.194;6.840;2024-01-25T03:26:31;7.80;99.90
18083;DHT22;9168;51.194;6.840;2024-01-25T03:28:58;7.70;99.90
18083;DHT22;9168;51.194;6.840;2024-01-25T03:31:26;7.70;99.90
18083;DHT22;9168;51.194;6.840;2024-01-25T03:33:53;7.70;99.90
18083;DHT22;9168;51.194;6.840;2024-01-25T03:36:20;7.70;99.90
18083;DHT22;9168;51.194;6.840;2024-01-25T03:38:47;7.60;99.90
18083;DHT22;9168;51.194;6.840;2024-01-25T03:41:14;7.60;99.90
18083;DHT22;9168;51.194;6.840;2024-01-25T03:43:41;7.60;99.90
18083;DHT22;9168;51.194;6.840;2024-01-25T03:46:07;7.50;99.90
18083;DHT22;9168;51.194;6.840;2024-01-25T03:48:36;7.50;99.90
18083;DHT22;9168;51.194;6.840;2024-01-25T03:51:03;7.50;99.90
18083;DHT22;9168;51.194;6.840;2024-01-25T03:53:30;7.40;99.90
18083;DHT22;9168;51.194;6.840;2024-01-25T03:55:57;7.40;99.90
18083;DHT22;9168;51.194;6.840;2024-01-25T03:58:23;7.40;99.90
18083;DHT22;9168;51.194;6.840;2024-01-25T04:00:50;7.30;99.90
18083;DHT22;9168;51.194;6.840;2024-01-25T04:03:17;7.30;99.90
18083;DHT22;9168;51.194;6.840;2024-01-25T04:05:45;7.20;99.90
18083;DHT22;9168;51.194;6.840;2024-01-25T04:08:12;7.20;99.90
18083;DHT22;9168;51.194;6.840;2024-01-25T04:10:39;7.20;99.90
18083;DHT22;9168;51.194;6.840;2024-01-25T04:13:06;7.20;99.90
18083;DHT22;9168;51.194;6.840;2024-01-25T04:15:33;7.20;99.90
18083;DHT22;9168;51.194;6.840;2024-01-25T04:18:00;7.10;99.90
18083;DHT22;9168;51.194;6.840;2024-01-25T04:20:27;7.10;99.90
18083;DHT22;9168;51.194;6.840;2024-01-25T04:22:55;7.10;99.90
18083;DHT22;9168;51.194;6.840;2024-01-25T04:25:22;7.00;99.90
18083;DHT22;9168;51.194;6.840;2024-01-25T04:27:49;6.90;99.90
18083;DHT22;9168;51.194;6.840;2024-01-25T04:30:16;6.90;99.90
18083;DHT22;9168;51.194;6.840;2024-01-25T04:32:44;6.90;99.90
18083;DHT22;9168;51.194;6.840;2024-01-25T04:35:10;6.80;99.90
18083;DHT22;9168;51.194;6.840;2024-01-25T04:37:37;6.80;99.90
18083;DHT22;9168;51.194;6.840;2024-01-25T04:40:07;6.70;99.90
18083;DHT22;9168;51.194;6.840;2024-01-25T04:42:34;6.70;99.90
18083;DHT22;9168;51.194;6.840;2024-01-25T04:45:01;6.70;99.90
18083;DHT22;9168;51.194;6.840;2024-01-25T04:47:28;6.60;99.90
18083;DHT22;9168;51.194;6.840;2024-01-25T04:49:55;6.60;99.90
18083;DHT22;9168;51.194;6.840;2024-01-25T04:52:21;6.50;99.90
18083;DHT22;9168;51.194;6.840;2024-01-25T04:54:48;6.50;99.90
18083;DHT22;9168;51.194;6.840;2024-01-25T04:57:16;6.50;99.90
18083;DHT22;9168;51.194;6.840;2024-01-25T04:59:43;6.40;99.90
18083;DHT22;9168;51.194;6.840;2024-01-25T05:02:10;6.50;99.90
18083;DHT22;9168;51.194;6.840;2024-01-25T05:04:37;6.40;99.90
18083;DHT22;9168;51.194;6.840;2024-01-25T05:07:04;6.40;99.90
18083;DHT22;9168;51.194;6.840;2024-01-25T05:09:31;6.40;99.90
18083;DHT22;9168;51.194;6.840;2024-01-25T05:11:58;6.40;99.90
18083;DHT22;9168;51.194;6.840;2024-01-25T05:14:29;6.40;99.90
18083;DHT22;9168;51.194;6.840;2024-01-25T05:16:56;6.30;99.90
18083;DHT22;9168;51.194;6.840;2024-01-25T05:19:23;6.30;99.90
18083;DHT22;9168;51.194;6.840;2024-01-25T05:21:51;6.30;99.90
18083;DHT22;9168;51.194;6.840;2024-01-25T05:24:18;6.30;99.90
18083;DHT22;9168;51.194;6.840;2024-01-25T05:26:44;6.30;99.90
18083;DHT22;9168;51.194;6.840;2024-01-25T05:29:11;6.30;99.90
18083;DHT22;9168;51.194;6.840;2024-01-25T05:31:40;6.30;99.90
18083;DHT22;9168;51.194;6.840;2024-01-25T05:34:07;6.30;99.90
18083;DHT22;9168;51.194;6.840;2024-01-25T05:36:33;6.30;99.90
18083;DHT22;9168;51.194;6.840;2024-01-25T05:39:00;6.30;99.90
18083;DHT22;9168;51.194;6.840;2024-01-25T05:41:33;6.30;99.90
18083;DHT22;9168;51.194;6.840;2024-01-25T05:44:01;6.30;99.90
18083;DHT22;9168;51.194;6.840;2024-01-25T05:46:28;6.30;99.90
18083;DHT22;9168;51.194;6.840;2024-01-25T05:48:56;6.20;99.90
18083;DHT22;9168;51.194;6.840;2024-01-25T05:51:23;6.20;99.90
18083;DHT22;9168;51.194;6.840;2024-01-25T05:53:50;6.30;99.90
18083;DHT22;9168;51.194;6.840;2024-01-25T05:56:17;6.30;99.90
18083;DHT22;9168;51.194;6.840;2024-01-25T05:58:44;6.20;99.90
18083;DHT22;9168;51.194;6.840;2024-01-25T06:01:11;6.20;99.90
18083;DHT22;9168;51.194;6.840;2024-01-25T06:03:38;6.20;99.90
18083;DHT22;9168;51.194;6.840;2024-01-25T06:06:06;6.10;99.90
18083;DHT22;9168;51.194;6.840;2024-01-25T06:08:34;6.10;99.90
18083;DHT22;9168;51.194;6.840;2024-01-25T06:11:01;6.10;99.90
18083;DHT22;9168;51.194;6.840;2024-01-25T06:13:28;6.00;99.90
18083;DHT22;9168;51.194;6.840;2024-01-25T06:15:54;6.00;99.90
18083;DHT22;9168;51.194;6.840;2024-01-25T06:18:21;5.90;99.90
18083;DHT22;9168;51.194;6.840;2024-01-25T06:20:48;5.90;99.90
18083;DHT22;9168;51.194;6.840;2024-01-25T06:23:17;5.90;99.90
18083;DHT22;9168;51.194;6.840;2024-01-25T06:25:44;5.80;99.90
18083;DHT22;9168;51.194;6.840;2024-01-25T06:28:11;5.80;99.90
18083;DHT22;9168;51.194;6.840;2024-01-25T06:30:38;5.80;99.90
18083;DHT22;9168;51.194;6.840;2024-01-25T06:33:05;5.70;99.90
18083;DHT22;9168;51.194;6.840;2024-01-25T06:35:32;5.70;99.90
18083;DHT22;9168;51.194;6.840;2024-01-25T06:37:59;5.70;99.90
18083;DHT22;9168;51.194;6.840;2024-01-25T06:40:27;5.60;99.90
18083;DHT22;9168;51.194;6.840;2024-01-25T06:42:54;5.70;99.90
18083;DHT22;9168;51.194;6.840;2024-01-25T06:45:21;5.70;99.90
18083;DHT22;9168;51.194;6.840;2024-01-25T06:47:48;5.60;99.90
18083;DHT22;9168;51.194;6.840;2024-01-25T06:50:16;5.60;99.90
18083;DHT22;9168;51.194;6.840;2024-01-25T06:52:43;5.50;99.90
18083;DHT22;9168;51.194;6.840;2024-01-25T06:55:09;5.50;99.90
18083;DHT22;9168;51.194;6.840;2024-01-25T06:57:38;5.50;99.90
18083;DHT22;9168;51.194;6.840;2024-01-25T07:00:06;5.40;99.90
18083;DHT22;9168;51.194;6.840;2024-01-25T07:02:32;5.40;99.90
18083;DHT22;9168;51.194;6.840;2024-01-25T07:04:59;5.30;99.90
18083;DHT22;9168;51.194;6.840;2024-01-25T07:07:27;5.30;99.90
18083;DHT22;9168;51.194;6.840;2024-01-25T07:09:53;5.30;99.90
18083;DHT22;9168;51.194;6.840;2024-01-25T07:12:20;5.20;99.90
18083;DHT22;9168;51.194;6.840;2024-01-25T07:14:49;5.20;99.90
18083;DHT22;9168;51.194;6.840;2024-01-25T07:17:15;5.20;99.90
18083;DHT22;9168;51.194;6.840;2024-01-25T07:19:42;5.20;99.90
18083;DHT22;9168;51.194;6.840;2024-01-25T07:22:09;5.10;99.90
18083;DHT22;9168;51.194;6.840;2024-01-25T07:24:37;5.10;99.90
18083;DHT22;9168;51.194;6.840;2024-01-25T07:27:04;5.10;99.90
18083;DHT22;9168;51.194;6.840;2024-01-25T07:29:31;5.00;99.90
18083;DHT22;9168;51.194;6.840;2024-01-25T07:31:59;5.00;99.90
18083;DHT22;9168;51.194;6.840;2024-01-25T07:34:26;5.00;99.90
18083;DHT22;9168;51.194;6.840;2024-01-25T07:36:53;4.90;99.90
18083;DHT22;9168;51.194;6.840;2024-01-25T07:39:20;4.90;99.90
18083;DHT22;9168;51.194;6.840;2024-01-25T07:41:47;4.90;99.90
18083;DHT22;9168;51.194;6.840;2024-01-25T07:44:14;4.90;99.90
18083;DHT22;9168;51.194;6.840;2024-01-25T07:46:41;4.80;99.90
18083;DHT22;9168;51.194;6.840;2024-01-25T07:49:09;4.80;99.90
18083;DHT22;9168;51.194;6.840;2024-01-25T07:51:36;4.80;99.90
18083;DHT22;9168;51.194;6.840;2024-01-25T07:54:03;4.80;99.90
18083;DHT22;9168;51.194;6.840;2024-01-25T07:56:30;4.80;99.90
18083;DHT22;9168;51.194;6.840;2024-01-25T07:58:57;4.80;99.90
18083;DHT22;9168;51.194;6.840;2024-01-25T08:01:25;4.90;99.90
18083;DHT22;9168;51.194;6.840;2024-01-25T08:03:52;4.90;99.90
18083;DHT22;9168;51.194;6.840;2024-01-25T08:06:20;4.90;99.90
18083;DHT22;9168;51.194;6.840;2024-01-25T08:08:48;4.90;99.90
18083;DHT22;9168;51.194;6.840;2024-01-25T08:11:15;5.00;99.90
18083;DHT22;9168;51.194;6.840;2024-01-25T08:13:44;5.10;99.90
18083;DHT22;9168;51.194;6.840;2024-01-25T08:16:11;5.20;99.90
18083;DHT22;9168;51.194;6.840;2024-01-25T08:18:39;5.40;99.90
18083;DHT22;9168;51.194;6.840;2024-01-25T08:21:06;5.40;99.90
18083;DHT22;9168;51.194;6.840;2024-01-25T08:23:34;5.50;99.90
18083;DHT22;9168;51.194;6.840;2024-01-25T08:26:01;5.50;99.90
18083;DHT22;9168;51.194;6.840;2024-01-25T08:28:28;5.50;99.90
18083;DHT22;9168;51.194;6.840;2024-01-25T08:30:54;5.60;99.90
18083;DHT22;9168;51.194;6.840;2024-01-25T08:33:21;5.60;99.90
18083;DHT22;9168;51.194;6.840;2024-01-25T08:35:50;5.60;99.90
18083;DHT22;9168;51.194;6.840;2024-01-25T08:38:17;5.70;99.90
18083;DHT22;9168;51.194;6.840;2024-01-25T08:40:46;5.70;99.90
18083;DHT22;9168;51.194;6.840;2024-01-25T08:43:12;5.70;99.90
18083;DHT22;9168;51.194;6.840;2024-01-25T08:45:39;5.80;99.90
18083;DHT22;9168;51.194;6.840;2024-01-25T08:48:07;5.90;99.90
18083;DHT22;9168;51.194;6.840;2024-01-25T08:50:34;5.90;99.90
18083;DHT22;9168;51.194;6.840;2024-01-25T08:53:01;6.00;99.90
18083;DHT22;9168;51.194;6.840;2024-01-25T08:55:28;6.00;99.90
18083;DHT22;9168;51.194;6.840;2024-01-25T08:57:56;6.10;99.90
18083;DHT22;9168;51.194;6.840;2024-01-25T09:00:23;6.20;99.90
18083;DHT22;9168;51.194;6.840;2024-01-25T09:02:50;6.20;99.90
18083;DHT22;9168;51.194;6.840;2024-01-25T09:05:17;6.30;99.90
18083;DHT22;9168;51.194;6.840;2024-01-25T09:07:44;6.40;99.90
18083;DHT22;9168;51.194;6.840;2024-01-25T09:10:11;6.40;99.90
18083;DHT22;9168;51.194;6.840;2024-01-25T09:12:38;6.50;99.90
18083;DHT22;9168;51.194;6.840;2024-01-25T09:15:07;6.50;99.90
18083;DHT22;9168;51.194;6.840;2024-01-25T09:17:35;6.60;99.90
18083;DHT22;9168;51.194;6.840;2024-01-25T09:20:01;6.60;99.90
18083;DHT22;9168;51.194;6.840;2024-01-25T09:22:29;6.70;99.90
18083;DHT22;9168;51.194;6.840;2024-01-25T09:24:56;6.80;99.90
18083;DHT22;9168;51.194;6.840;2024-01-25T09:27:23;6.90;99.90
18083;DHT22;9168;51.194;6.840;2024-01-25T09:29:50;7.00;99.90
18083;DHT22;9168;51.194;6.840;2024-01-25T09:32:18;7.00;99.90
18083;DHT22;9168;51.194;6.840;2024-01-25T09:34:46;7.10;99.90
18083;DHT22;9168;51.194;6.840;2024-01-25T09:37:13;7.10;99.90
18083;DHT22;9168;51.194;6.840;2024-01-25T09:39:41;7.20;99.90
18083;DHT22;9168;51.194;6.840;2024-01-25T09:42:08;7.30;99.90
18083;DHT22;9168;51.194;6.840;2024-01-25T09:44:38;7.30;99.90
18083;DHT22;9168;51.194;6.840;2024-01-25T09:47:05;7.30;99.90
18083;DHT22;9168;51.194;6.840;2024-01-25T09:49:34;7.40;99.90
18083;DHT22;9168;51.194;6.840;2024-01-25T09:52:02;7.40;99.90
18083;DHT22;9168;51.194;6.840;2024-01-25T09:54:31;7.50;99.90
18083;DHT22;9168;51.194;6.840;2024-01-25T09:57:06;7.50;99.90
18083;DHT22;9168;51.194;6.840;2024-01-25T09:59:33;7.50;99.90
18083;DHT22;9168;51.194;6.840;2024-01-25T10:02:01;7.50;99.90
18083;DHT22;9168;51.194;6.840;2024-01-25T10:04:29;7.50;99.90
18083;DHT22;9168;51.194;6.840;2024-01-25T10:06:58;7.60;99.90
18083;DHT22;9168;51.194;6.840;2024-01-25T10:09:25;7.70;99.90
18083;DHT22;9168;51.194;6.840;2024-01-25T10:11:52;7.70;99.90
18083;DHT22;9168;51.194;6.840;2024-01-25T10:14:19;7.80;99.90
18083;DHT22;9168;51.194;6.840;2024-01-25T10:16:46;7.80;99.90
18083;DHT22;9168;51.194;6.840;2024-01-25T10:19:13;7.90;99.90
18083;DHT22;9168;51.194;6.840;2024-01-25T10:21:41;7.90;99.90
18083;DHT22;9168;51.194;6.840;2024-01-25T10:24:10;8.00;99.90
18083;DHT22;9168;51.194;6.840;2024-01-25T10:26:37;8.10;99.90
18083;DHT22;9168;51.194;6.840;2024-01-25T10:29:04;8.10;99.90
18083;DHT22;9168;51.194;6.840;2024-01-25T10:31:32;8.20;99.90
18083;DHT22;9168;51.194;6.840;2024-01-25T10:34:01;8.20;99.90
18083;DHT22;9168;51.194;6.840;2024-01-25T10:36:29;8.30;99.90
18083;DHT22;9168;51.194;6.840;2024-01-25T10:38:57;8.30;99.90
18083;DHT22;9168;51.194;6.840;2024-01-25T10:41:27;8.40;99.90
18083;DHT22;9168;51.194;6.840;2024-01-25T10:43:54;8.40;99.90
18083;DHT22;9168;51.194;6.840;2024-01-25T10:46:21;8.50;99.90
18083;DHT22;9168;51.194;6.840;2024-01-25T10:48:49;8.60;99.90
18083;DHT22;9168;51.194;6.840;2024-01-25T10:51:17;8.50;99.90
18083;DHT22;9168;51.194;6.840;2024-01-25T10:53:45;8.60;99.90
18083;DHT22;9168;51.194;6.840;2024-01-25T10:56:12;8.70;99.90
18083;DHT22;9168;51.194;6.840;2024-01-25T10:58:42;8.80;99.90
18083;DHT22;9168;51.194;6.840;2024-01-25T11:01:10;8.90;99.90
18083;DHT22;9168;51.194;6.840;2024-01-25T11:03:39;9.00;99.90
18083;DHT22;9168;51.194;6.840;2024-01-25T11:06:08;9.10;99.90
18083;DHT22;9168;51.194;6.840;2024-01-25T11:08:35;9.10;99.90
18083;DHT22;9168;51.194;6.840;2024-01-25T11:11:05;9.20;99.90
18083;DHT22;9168;51.194;6.840;2024-01-25T11:13:33;9.20;99.90
18083;DHT22;9168;51.194;6.840;2024-01-25T11:16:12;9.30;99.90
18083;DHT22;9168;51.194;6.840;2024-01-25T11:18:48;9.40;99.90
18083;DHT22;9168;51.194;6.840;2024-01-25T11:21:24;9.60;99.90
18083;DHT22;9168;51.194;6.840;2024-01-25T11:23:59;9.90;99.90
18083;DHT22;9168;51.194;6.840;2024-01-25T11:26:27;10.10;99.90
18083;DHT22;9168;51.194;6.840;2024-01-25T11:28:54;10.20;99.90
18083;DHT22;9168;51.194;6.840;2024-01-25T11:31:23;10.10;99.90
18083;DHT22;9168;51.194;6.840;2024-01-25T11:33:50;10.00;99.90
18083;DHT22;9168;51.194;6.840;2024-01-25T11:36:20;10.00;99.90
18083;DHT22;9168;51.194;6.840;2024-01-25T11:38:48;9.90;99.90
18083;DHT22;9168;51.194;6.840;2024-01-25T11:41:14;9.90;99.90
18083;DHT22;9168;51.194;6.840;2024-01-25T11:43:41;9.80;99.90
18083;DHT22;9168;51.194;6.840;2024-01-25T11:46:08;9.70;99.90
18083;DHT22;9168;51.194;6.840;2024-01-25T11:48:40;9.60;99.90
18083;DHT22;9168;51.194;6.840;2024-01-25T11:51:09;9.60;99.90
18083;DHT22;9168;51.194;6.840;2024-01-25T11:53:36;9.60;99.90
18083;DHT22;9168;51.194;6.840;2024-01-25T11:56:05;9.50;99.90
18083;DHT22;9168;51.194;6.840;2024-01-25T11:58:33;9.50;99.90
18083;DHT22;9168;51.194;6.840;2024-01-25T12:01:00;9.50;99.90
18083;DHT22;9168;51.194;6.840;2024-01-25T12:03:28;9.50;99.90
18083;DHT22;9168;51.194;6.840;2024-01-25T12:05:56;9.40;99.90
18083;DHT22;9168;51.194;6.840;2024-01-25T12:08:24;9.40;99.90
18083;DHT22;9168;51.194;6.840;2024-01-25T12:11:02;9.40;99.90
18083;DHT22;9168;51.194;6.840;2024-01-25T12:13:33;9.30;99.90
18083;DHT22;9168;51.194;6.840;2024-01-25T12:16:03;9.30;99.90
18083;DHT22;9168;51.194;6.840;2024-01-25T12:18:30;9.30;99.90
18083;DHT22;9168;51.194;6.840;2024-01-25T12:21:00;9.30;99.90
18083;DHT22;9168;51.194;6.840;2024-01-25T12:23:31;9.20;99.90
18083;DHT22;9168;51.194;6.840;2024-01-25T12:26:00;9.20;99.90
18083;DHT22;9168;51.194;6.840;2024-01-25T12:28:27;9.20;99.90
18083;DHT22;9168;51.194;6.840;2024-01-25T12:30:54;9.20;99.90
18083;DHT22;9168;51.194;6.840;2024-01-25T12:33:21;9.30;99.90
18083;DHT22;9168;51.194;6.840;2024-01-25T12:35:48;9.30;99.90
18083;DHT22;9168;51.194;6.840;2024-01-25T12:38:16;9.30;99.90
18083;DHT22;9168;51.194;6.840;2024-01-25T12:40:43;9.30;99.90
18083;DHT22;9168;51.194;6.840;2024-01-25T12:43:10;9.30;99.90
18083;DHT22;9168;51.194;6.840;2024-01-25T12:45:37;9.20;99.90
18083;DHT22;9168;51.194;6.840;2024-01-25T12:48:05;9.30;99.90
18083;DHT22;9168;51.194;6.840;2024-01-25T12:50:33;9.20;99.90
18083;DHT22;9168;51.194;6.840;2024-01-25T12:53:00;9.20;99.90
18083;DHT22;9168;51.194;6.840;2024-01-25T12:55:29;9.20;99.90
18083;DHT22;9168;51.194;6.840;2024-01-25T12:57:56;9.20;99.90
18083;DHT22;9168;51.194;6.840;2024-01-25T13:00:23;9.20;99.90
18083;DHT22;9168;51.194;6.840;2024-01-25T13:02:50;9.20;99.90
18083;DHT22;9168;51.194;6.840;2024-01-25T13:05:17;9.20;99.90
18083;DHT22;9168;51.194;6.840;2024-01-25T13:07:44;9.20;99.90
18083;DHT22;9168;51.194;6.840;2024-01-25T13:10:11;9.20;99.90
18083;DHT22;9168;51.194;6.840;2024-01-25T13:12:39;9.20;99.90
18083;DHT22;9168;51.194;6.840;2024-01-25T13:15:07;9.20;99.90
18083;DHT22;9168;51.194;6.840;2024-01-25T13:17:34;9.30;99.90
18083;DHT22;9168;51.194;6.840;2024-01-25T13:20:02;9.30;99.90
18083;DHT22;9168;51.194;6.840;2024-01-25T13:22:29;9.30;99.90
18083;DHT22;9168;51.194;6.840;2024-01-25T13:24:58;9.30;99.90
18083;DHT22;9168;51.194;6.840;2024-01-25T13:27:25;9.30;99.90
18083;DHT22;9168;51.194;6.840;2024-01-25T13:29:54;9.40;99.90
18083;DHT22;9168;51.194;6.840;2024-01-25T13:32:21;9.50;99.90
18083;DHT22;9168;51.194;6.840;2024-01-25T13:34:48;9.50;99.90
18083;DHT22;9168;51.194;6.840;2024-01-25T13:37:15;9.60;99.90
18083;DHT22;9168;51.194;6.840;2024-01-25T13:39:43;9.70;99.90
18083;DHT22;9168;51.194;6.840;2024-01-25T13:42:10;9.70;99.90
18083;DHT22;9168;51.194;6.840;2024-01-25T13:44:37;9.70;99.90
18083;DHT22;9168;51.194;6.840;2024-01-25T13:47:06;9.70;99.90
18083;DHT22;9168;51.194;6.840;2024-01-25T13:49:33;9.70;99.90
18083;DHT22;9168;51.194;6.840;2024-01-25T13:52:01;9.70;99.90
18083;DHT22;9168;51.194;6.840;2024-01-25T13:54:29;9.80;99.90
18083;DHT22;9168;51.194;6.840;2024-01-25T13:56:56;9.80;99.90
18083;DHT22;9168;51.194;6.840;2024-01-25T13:59:22;9.80;99.90
18083;DHT22;9168;51.194;6.840;2024-01-25T14:01:51;9.80;99.90
18083;DHT22;9168;51.194;6.840;2024-01-25T14:04:19;9.80;99.90
18083;DHT22;9168;51.194;6.840;2024-01-25T14:06:46;9.80;99.90
18083;DHT22;9168;51.194;6.840;2024-01-25T14:09:13;9.80;99.90
18083;DHT22;9168;51.194;6.840;2024-01-25T14:11:41;9.80;99.90
18083;DHT22;9168;51.194;6.840;2024-01-25T14:14:08;9.80;99.90
18083;DHT22;9168;51.194;6.840;2024-01-25T14:16:35;9.80;99.90
18083;DHT22;9168;51.194;6.840;2024-01-25T14:19:02;9.80;99.90
18083;DHT22;9168;51.194;6.840;2024-01-25T14:21:31;9.70;99.90
18083;DHT22;9168;51.194;6.840;2024-01-25T14:23:58;9.70;99.90
18083;DHT22;9168;51.194;6.840;2024-01-25T14:26:25;9.70;99.90
18083;DHT22;9168;51.194;6.840;2024-01-25T14:28:52;9.70;99.90
18083;DHT22;9168;51.194;6.840;2024-01-25T14:31:19;9.70;99.90
18083;DHT22;9168;51.194;6.840;2024-01-25T14:33:45;9.70;99.90
18083;DHT22;9168;51.194;6.840;2024-01-25T14:36:12;9.60;99.90
18083;DHT22;9168;51.194;6.840;2024-01-25T14:38:41;9.60;99.90
18083;DHT22;9168;51.194;6.840;2024-01-25T14:41:08;9.60;99.90
18083;DHT22;9168;51.194;6.840;2024-01-25T14:43:37;9.60;99.90
18083;DHT22;9168;51.194;6.840;2024-01-25T14:46:04;9.50;99.90
18083;DHT22;9168;51.194;6.840;2024-01-25T14:48:31;9.60;99.90
18083;DHT22;9168;51.194;6.840;2024-01-25T14:50:58;9.50;99.90
18083;DHT22;9168;51.194;6.840;2024-01-25T14:53:25;9.50;99.90
18083;DHT22;9168;51.194;6.840;2024-01-25T14:55:53;9.50;99.90
18083;DHT22;9168;51.194;6.840;2024-01-25T14:58:20;9.50;99.90
18083;DHT22;9168;51.194;6.840;2024-01-25T15:00:49;9.50;99.90
18083;DHT22;9168;51.194;6.840;2024-01-25T15:03:16;9.50;99.90
18083;DHT22;9168;51.194;6.840;2024-01-25T15:05:43;9.50;99.90
18083;DHT22;9168;51.194;6.840;2024-01-25T15:08:10;9.50;99.90
18083;DHT22;9168;51.194;6.840;2024-01-25T15:10:36;9.50;99.90
18083;DHT22;9168;51.194;6.840;2024-01-25T15:13:05;9.50;99.90
18083;DHT22;9168;51.194;6.840;2024-01-25T15:15:32;9.50;99.90
18083;DHT22;9168;51.194;6.840;2024-01-25T15:17:59;9.50;99.90
18083;DHT22;9168;51.194;6.840;2024-01-25T15:20:25;9.50;99.90
18083;DHT22;9168;51.194;6.840;2024-01-25T15:22:52;9.50;99.90
18083;DHT22;9168;51.194;6.840;2024-01-25T15:25:21;9.50;99.90
18083;DHT22;9168;51.194;6.840;2024-01-25T15:27:48;9.50;99.90
18083;DHT22;9168;51.194;6.840;2024-01-25T15:30:17;9.50;99.90
18083;DHT22;9168;51.194;6.840;2024-01-25T15:32:44;9.50;99.90
18083;DHT22;9168;51.194;6.840;2024-01-25T15:35:12;9.50;99.90
18083;DHT22;9168;51.194;6.840;2024-01-25T15:37:39;9.50;99.90
18083;DHT22;9168;51.194;6.840;2024-01-25T15:40:07;9.50;99.90
18083;DHT22;9168;51.194;6.840;2024-01-25T15:42:37;9.50;99.90
18083;DHT22;9168;51.194;6.840;2024-01-25T15:45:05;9.50;99.90
18083;DHT22;9168;51.194;6.840;2024-01-25T15:47:33;9.50;99.90
18083;DHT22;9168;51.194;6.840;2024-01-25T15:50:00;9.50;99.90
18083;DHT22;9168;51.194;6.840;2024-01-25T15:52:30;9.50;99.90
18083;DHT22;9168;51.194;6.840;2024-01-25T15:55:00;9.50;99.90
18083;DHT22;9168;51.194;6.840;2024-01-25T15:57:28;9.40;99.90
18083;DHT22;9168;51.194;6.840;2024-01-25T15:59:55;9.40;99.90
18083;DHT22;9168;51.194;6.840;2024-01-25T16:02:23;9.40;99.90
18083;DHT22;9168;51.194;6.840;2024-01-25T16:04:51;9.40;99.90